Pinedale, WY

7:40 AM MDT on July 26, 2016 (GMT -0600)
Wenz | | Change Station

Elev 7087 ft 42.80 °N, 109.81 °W | Updated 5 minutes ago

Clear
Clear
48 °F
Feels Like 48 °F
N
6
Wind Variable Wind from West

Today
High -- | Low -- °F
--% Chance of Precip.
Yesterday
High -- | Low -- °F
Precip. -- in
Pressure 30.33 in
Visibility 10.0 miles
Clouds Clear
Dew Point 34 °F
Humidity 58%
Rainfall 0.00 in
Snow Depth Not available.
6:05 AM 8:45 PM
Waning Gibbous, 54% visible
METAR KPNA 261335Z AUTO 27005KT 10SM CLR 09/01 A3033 RMK AO2
Pressure 30.33 in
Visibility 10.0 miles
Clouds Clear
Dew Point 34 °F
Humidity 58%
Rainfall 0.00 in
Snow Depth Not available.
6:05 AM 8:45 PM
Waning Gibbous, 54% visible
METAR KPNA 261335Z AUTO 27005KT 10SM CLR 09/01 A3033 RMK AO2

10-Day Weather Forecast

Almanac

Astronomy

Jul. 26, 2016 Rise Set
Actual Time
Civil Twilight
Nautical Twilight
Astronomical Twilight
Moon
Length of Visible Light
Length of Day
Tomorrow will be .
, % of the Moon is Illuminated

Today's Extremes

State Highs State Lows

Community

WunderPhotos

Upload Photos

1,927,587 photos uploaded!

WunderBlog® & News

Nearby

Air Quality

  Air Quality AQ Index Pollutant
Not available.

Snow Depth

Station Depth Elevation

Earthquake Activity

City Distance Mag. Time & Date
Minimum magnitude displayed is 2.5.

Coastal Water Temperatures

Place Temperature

Stations

Nearby Weather Stations

Station Location Temp. Windchill Dew Point Humidity Wind Precip. Elev Updated Type
                   

Watches & Warnings

There are currently no watches in effect.